createdAt,value
2019-04-07T00:00:31.561Z,99.90
2019-04-07T00:03:01.308Z,99.90
2019-04-07T00:05:31.012Z,99.90
2019-04-07T00:08:00.812Z,99.90
2019-04-07T00:10:30.435Z,99.90
2019-04-07T00:13:00.314Z,99.90
2019-04-07T00:15:29.574Z,99.90
2019-04-07T00:18:00.531Z,99.90
2019-04-07T00:20:30.077Z,99.90
2019-04-07T00:22:59.617Z,99.90
2019-04-07T00:25:29.106Z,99.90
2019-04-07T00:27:58.735Z,99.90
2019-04-07T00:30:28.207Z,99.90
2019-04-07T00:32:57.673Z,99.90
2019-04-07T00:35:31.232Z,99.90
2019-04-07T00:37:57.225Z,99.90
2019-04-07T00:40:26.862Z,99.90
2019-04-07T00:42:58.197Z,99.90
2019-04-07T00:45:26.963Z,99.90
2019-04-07T00:47:56.011Z,99.90
2019-04-07T00:50:26.486Z,99.90
2019-04-07T00:52:56.091Z,99.90
2019-04-07T00:55:26.275Z,99.90
2019-04-07T00:57:56.114Z,99.90
2019-04-07T01:00:25.431Z,99.90
2019-04-07T01:02:55.184Z,99.90
2019-04-07T01:05:35.454Z,99.90
2019-04-07T01:07:55.201Z,99.90
2019-04-07T01:10:24.649Z,99.90
2019-04-07T01:12:54.097Z,99.90
2019-04-07T01:15:24.061Z,99.90
2019-04-07T01:17:53.614Z,99.90
2019-04-07T01:20:23.063Z,99.90
2019-04-07T01:22:52.946Z,99.90
2019-04-07T01:25:22.563Z,99.90
2019-04-07T01:27:52.828Z,99.90
2019-04-07T01:30:22.581Z,99.90
2019-04-07T01:32:52.125Z,99.90
2019-04-07T01:35:22.133Z,99.90
2019-04-07T01:37:52.386Z,99.90
2019-04-07T01:40:21.858Z,99.90
2019-04-07T01:42:55.537Z,99.90
2019-04-07T01:45:28.278Z,99.90
2019-04-07T01:47:58.430Z,99.90
2019-04-07T01:53:27.959Z,99.90
2019-04-07T01:56:03.002Z,99.90
2019-04-07T01:58:35.569Z,99.90
2019-04-07T02:01:04.593Z,99.90
2019-04-07T02:03:52.759Z,99.90
2019-04-07T02:06:22.818Z,99.90
2019-04-07T02:09:03.011Z,99.90
2019-04-07T02:11:42.885Z,99.90
2019-04-07T02:14:27.220Z,99.90
2019-04-07T02:17:12.029Z,99.90
2019-04-07T02:19:44.892Z,99.90
2019-04-07T02:22:29.989Z,99.90
2019-04-07T02:25:16.133Z,99.90
2019-04-07T02:27:49.550Z,99.90
2019-04-07T02:30:19.749Z,99.90
2019-04-07T02:33:08.364Z,99.90
2019-04-07T02:35:43.389Z,99.90
2019-04-07T02:38:17.102Z,99.90
2019-04-07T02:40:47.295Z,99.90
2019-04-07T02:43:19.279Z,99.90
2019-04-07T02:45:48.132Z,99.90
2019-04-07T02:48:22.101Z,99.90
2019-04-07T02:50:52.658Z,99.90
2019-04-07T02:53:27.195Z,99.90
2019-04-07T02:56:02.057Z,99.90
2019-04-07T03:01:35.557Z,99.90
2019-04-07T03:04:20.432Z,99.90
2019-04-07T03:06:52.881Z,99.90
2019-04-07T03:09:37.418Z,99.90
2019-04-07T03:12:12.457Z,99.90
2019-04-07T03:14:47.653Z,99.90
2019-04-07T03:17:31.771Z,99.90
2019-04-07T03:20:07.105Z,99.90
2019-04-07T03:22:57.349Z,99.90
2019-04-07T03:25:28.085Z,99.90
2019-04-07T03:28:01.648Z,99.90
2019-04-07T03:30:33.161Z,99.90
2019-04-07T03:36:10.771Z,99.90
2019-04-07T03:38:54.623Z,99.90
2019-04-07T03:41:25.747Z,99.90
2019-04-07T03:44:01.290Z,99.90
2019-04-07T03:46:34.568Z,99.90
2019-04-07T03:49:04.479Z,99.90
2019-04-07T03:51:37.949Z,99.90
2019-04-07T03:54:10.941Z,99.90
2019-04-07T03:56:58.418Z,99.90
2019-04-07T03:59:33.290Z,99.90
2019-04-07T04:02:06.738Z,99.90
2019-04-07T04:04:39.504Z,99.90
2019-04-07T04:07:22.892Z,99.90
2019-04-07T04:09:58.444Z,99.90
2019-04-07T04:12:31.698Z,99.90
2019-04-07T04:15:15.621Z,99.90
2019-04-07T04:17:45.628Z,99.90
2019-04-07T04:20:14.788Z,99.90
2019-04-07T04:22:44.947Z,99.90
2019-04-07T04:25:15.112Z,99.90
2019-04-07T04:27:44.634Z,99.90
2019-04-07T04:30:14.283Z,99.90
2019-04-07T04:32:43.931Z,99.90
2019-04-07T04:35:13.475Z,99.90
2019-04-07T04:37:48.750Z,99.90
2019-04-07T04:40:14.067Z,99.90
2019-04-07T04:42:42.705Z,99.90
2019-04-07T04:45:12.252Z,99.90
2019-04-07T04:47:42.807Z,99.90
2019-04-07T04:50:12.867Z,99.90
2019-04-07T04:52:42.755Z,99.90
2019-04-07T04:55:11.803Z,99.90
2019-04-07T04:57:41.186Z,99.90
2019-04-07T05:00:10.558Z,99.90
2019-04-07T05:02:40.095Z,99.90
2019-04-07T05:05:10.779Z,99.90
2019-04-07T05:07:51.015Z,99.90
2019-04-07T05:10:10.220Z,99.90
2019-04-07T05:12:41.213Z,99.90
2019-04-07T05:15:10.861Z,99.90
2019-04-07T05:17:40.408Z,99.90
2019-04-07T05:20:10.222Z,99.90
2019-04-07T05:22:39.836Z,99.90
2019-04-07T05:25:09.457Z,99.90
2019-04-07T05:27:39.202Z,99.90
2019-04-07T05:30:08.864Z,99.90
2019-04-07T05:32:39.977Z,99.90
2019-04-07T05:35:09.259Z,99.90
2019-04-07T05:37:39.584Z,99.90
2019-04-07T05:40:09.134Z,99.90
2019-04-07T05:42:38.958Z,99.90
2019-04-07T05:45:10.008Z,99.90
2019-04-07T05:47:43.592Z,99.90
2019-04-07T05:50:08.785Z,99.90
2019-04-07T05:52:39.859Z,99.90
2019-04-07T05:55:08.884Z,99.90
2019-04-07T05:57:38.710Z,99.90
2019-04-07T06:00:09.211Z,99.90
2019-04-07T06:02:38.233Z,99.90
2019-04-07T06:05:08.620Z,99.90
2019-04-07T06:07:37.873Z,99.90
2019-04-07T06:10:08.001Z,99.90
2019-04-07T06:12:40.888Z,99.90
2019-04-07T06:15:07.363Z,99.90
2019-04-07T06:17:36.798Z,99.90
2019-04-07T06:20:12.029Z,99.90
2019-04-07T06:22:38.034Z,99.90
2019-04-07T06:25:07.618Z,99.90
2019-04-07T06:27:37.060Z,99.90
2019-04-07T06:30:08.466Z,99.90
2019-04-07T06:32:39.671Z,99.90
2019-04-07T06:35:12.864Z,99.90
2019-04-07T06:37:38.770Z,99.90
2019-04-07T06:40:08.979Z,99.90
2019-04-07T06:42:38.753Z,99.90
2019-04-07T06:45:09.635Z,99.90
2019-04-07T06:47:48.701Z,99.90
2019-04-07T06:50:25.807Z,99.90
2019-04-07T06:55:53.952Z,99.90
2019-04-07T06:58:26.568Z,99.90
2019-04-07T07:01:03.054Z,99.90
2019-04-07T07:03:35.870Z,99.90
2019-04-07T07:06:10.086Z,99.90
2019-04-07T07:08:45.818Z,99.90
2019-04-07T07:11:23.115Z,99.90
2019-04-07T07:13:45.073Z,99.90
2019-04-07T07:16:34.938Z,99.90
2019-04-07T07:19:26.374Z,99.90
2019-04-07T07:22:01.076Z,99.90
2019-04-07T07:24:29.999Z,99.90
2019-04-07T07:26:59.341Z,99.90
2019-04-07T07:29:28.878Z,99.90
2019-04-07T07:32:01.942Z,99.90
2019-04-07T07:34:29.455Z,99.90
2019-04-07T07:36:59.852Z,99.90
2019-04-07T07:39:29.486Z,99.90
2019-04-07T07:41:59.357Z,99.90
2019-04-07T07:44:28.935Z,99.90
2019-04-07T07:46:58.648Z,99.90
2019-04-07T07:49:33.482Z,99.90
2019-04-07T07:51:58.247Z,99.90
2019-04-07T07:54:28.200Z,99.90
2019-04-07T07:56:57.996Z,99.90
2019-04-07T07:59:30.616Z,99.90
2019-04-07T08:01:57.792Z,99.90
2019-04-07T08:04:27.444Z,99.90
2019-04-07T08:06:56.906Z,99.90
2019-04-07T08:09:27.095Z,99.90
2019-04-07T08:11:57.769Z,99.90
2019-04-07T08:14:27.368Z,99.90
2019-04-07T08:17:00.171Z,99.90
2019-04-07T08:19:29.686Z,99.90
2019-04-07T08:21:57.315Z,99.90
2019-04-07T08:24:27.148Z,99.90
2019-04-07T08:26:57.193Z,99.90
2019-04-07T08:29:26.909Z,99.90
2019-04-07T08:31:56.562Z,99.90
2019-04-07T08:34:26.514Z,99.90
2019-04-07T08:36:55.396Z,99.90
2019-04-07T08:39:32.367Z,99.90
2019-04-07T08:41:59.390Z,99.90
2019-04-07T08:44:29.693Z,99.90
2019-04-07T08:46:58.944Z,99.90
2019-04-07T08:49:28.076Z,99.90
2019-04-07T08:51:58.267Z,99.90
2019-04-07T08:54:27.635Z,99.90
2019-04-07T08:56:58.124Z,99.90
2019-04-07T08:59:27.052Z,99.90
2019-04-07T09:01:56.984Z,99.90
2019-04-07T09:04:26.639Z,99.90
2019-04-07T09:06:59.355Z,99.90
2019-04-07T09:09:33.902Z,99.90
2019-04-07T09:11:57.527Z,99.90
2019-04-07T09:14:27.190Z,99.90
2019-04-07T09:17:23.255Z,99.90
2019-04-07T09:19:54.689Z,99.90
2019-04-07T09:22:29.709Z,99.90
2019-04-07T09:25:06.364Z,99.90
2019-04-07T09:27:32.741Z,99.90
2019-04-07T09:30:09.002Z,99.90
2019-04-07T09:32:40.596Z,99.90
2019-04-07T09:35:15.616Z,99.90
2019-04-07T09:37:48.213Z,99.90
2019-04-07T09:40:25.306Z,99.90
2019-04-07T09:43:00.988Z,99.90
2019-04-07T09:48:48.719Z,99.90
2019-04-07T09:51:32.136Z,99.90
2019-04-07T09:54:23.386Z,99.90
2019-04-07T09:56:58.754Z,99.90
2019-04-07T09:59:50.850Z,99.90
2019-04-07T10:02:34.140Z,99.90
2019-04-07T10:05:02.292Z,99.90
2019-04-07T10:07:35.996Z,99.90
2019-04-07T10:10:13.661Z,99.90
2019-04-07T10:12:59.879Z,99.90
2019-04-07T10:15:30.731Z,99.90
2019-04-07T10:18:20.475Z,99.90
2019-04-07T10:20:51.486Z,99.90
2019-04-07T10:23:36.366Z,99.90
2019-04-07T10:26:09.472Z,99.90
2019-04-07T10:28:42.171Z,99.90
2019-04-07T10:31:22.450Z,99.90
2019-04-07T10:34:03.001Z,99.90
2019-04-07T10:36:34.792Z,99.90
2019-04-07T10:39:10.177Z,99.90
2019-04-07T10:41:50.692Z,99.90
2019-04-07T10:44:24.952Z,99.90
2019-04-07T10:50:01.528Z,99.90
2019-04-07T10:52:41.227Z,99.90
2019-04-07T10:55:15.247Z,99.90
2019-04-07T10:58:00.633Z,99.90
2019-04-07T11:00:30.403Z,99.90
2019-04-07T11:02:59.933Z,99.90
2019-04-07T11:05:30.381Z,99.90
2019-04-07T11:08:03.321Z,99.90
2019-04-07T11:10:37.475Z,99.90
2019-04-07T11:13:23.148Z,99.90
2019-04-07T11:16:04.953Z,99.90
2019-04-07T11:18:36.468Z,99.90
2019-04-07T11:21:09.618Z,99.90
2019-04-07T11:23:41.416Z,99.90
2019-04-07T11:26:26.470Z,99.90
2019-04-07T11:28:57.322Z,99.90
2019-04-07T11:31:28.547Z,99.90
2019-04-07T11:36:57.196Z,99.90
2019-04-07T11:39:35.085Z,99.90
2019-04-07T11:42:22.958Z,99.90
2019-04-07T11:44:58.508Z,99.90
2019-04-07T11:47:29.672Z,99.90
2019-04-07T11:50:03.851Z,99.90
2019-04-07T11:52:36.489Z,99.90
2019-04-07T11:55:22.917Z,99.90
2019-04-07T11:58:07.421Z,99.90
2019-04-07T12:00:42.475Z,99.90
2019-04-07T12:03:13.116Z,99.90
2019-04-07T12:05:46.086Z,99.90
2019-04-07T12:08:18.544Z,99.90
2019-04-07T12:11:01.744Z,99.90
2019-04-07T12:13:27.317Z,99.90
2019-04-07T12:15:58.154Z,99.90
2019-04-07T12:18:34.149Z,99.90
2019-04-07T12:21:20.086Z,99.90
2019-04-07T12:26:42.063Z,99.90
2019-04-07T12:29:29.150Z,99.90
2019-04-07T12:32:13.772Z,99.90
2019-04-07T12:34:47.724Z,99.90
2019-04-07T12:37:37.240Z,99.90
2019-04-07T12:40:22.244Z,99.90
2019-04-07T12:43:05.761Z,99.90
2019-04-07T12:45:37.178Z,99.90
2019-04-07T12:48:17.702Z,99.90
2019-04-07T12:50:52.354Z,99.90
2019-04-07T12:53:32.145Z,99.90
2019-04-07T12:56:04.809Z,99.90
2019-04-07T12:58:42.269Z,99.90
2019-04-07T13:01:18.777Z,99.90
2019-04-07T13:03:46.311Z,99.90
2019-04-07T13:06:18.789Z,99.90
2019-04-07T13:08:56.922Z,99.90
2019-04-07T13:11:35.351Z,99.90
2019-04-07T13:14:08.400Z,99.90
2019-04-07T13:16:37.086Z,99.90
2019-04-07T13:19:14.352Z,99.90
2019-04-07T13:21:48.057Z,99.90
2019-04-07T13:24:30.310Z,99.90
2019-04-07T13:26:56.264Z,99.90
2019-04-07T13:29:31.292Z,99.90
2019-04-07T13:32:04.515Z,99.90
2019-04-07T13:34:40.468Z,99.90
2019-04-07T13:40:10.571Z,99.90
2019-04-07T13:42:47.598Z,99.90
2019-04-07T13:45:19.159Z,99.90
2019-04-07T13:48:08.960Z,99.90
2019-04-07T13:50:53.270Z,99.90
2019-04-07T13:53:38.936Z,99.90
2019-04-07T13:56:12.093Z,99.90
2019-04-07T13:59:01.008Z,99.90
2019-04-07T14:01:33.623Z,99.90
2019-04-07T14:04:02.472Z,99.90
2019-04-07T14:06:33.918Z,99.90
2019-04-07T14:09:06.770Z,99.90
2019-04-07T14:11:50.049Z,99.90
2019-04-07T14:14:09.767Z,99.90
2019-04-07T14:16:50.809Z,99.90
2019-04-07T14:19:26.581Z,99.90
2019-04-07T14:22:00.032Z,99.90
2019-04-07T14:24:34.767Z,99.90
2019-04-07T14:27:07.320Z,99.90
2019-04-07T14:29:37.252Z,99.90
2019-04-07T14:32:16.301Z,99.90
2019-04-07T14:34:49.889Z,99.90
2019-04-07T14:37:21.751Z,99.90
2019-04-07T14:39:59.908Z,99.90
2019-04-07T14:42:35.191Z,99.90
2019-04-07T14:45:24.341Z,99.90
2019-04-07T14:47:57.596Z,99.90
2019-04-07T14:50:30.897Z,99.90
2019-04-07T14:53:03.111Z,99.90
2019-04-07T14:58:41.196Z,99.90
2019-04-07T15:01:10.711Z,99.90
2019-04-07T15:03:40.659Z,99.90
2019-04-07T15:06:10.877Z,99.90
2019-04-07T15:08:56.944Z,99.90
2019-04-07T15:11:29.738Z,99.90
2019-04-07T15:14:00.715Z,99.90
2019-04-07T15:16:28.824Z,99.90
2019-04-07T15:18:59.341Z,99.90
2019-04-07T15:21:29.801Z,99.90
2019-04-07T15:24:01.909Z,99.90
2019-04-07T15:26:29.258Z,99.90
2019-04-07T15:28:59.033Z,99.90
2019-04-07T15:31:29.759Z,99.90
2019-04-07T15:34:00.926Z,99.90
2019-04-07T15:36:30.047Z,99.90
2019-04-07T15:38:59.591Z,99.90
2019-04-07T15:41:29.543Z,99.90
2019-04-07T15:44:00.426Z,99.90
2019-04-07T15:46:30.853Z,99.90
2019-04-07T15:49:00.352Z,99.90
2019-04-07T15:51:34.104Z,99.90
2019-04-07T15:54:00.657Z,99.90
2019-04-07T15:56:30.289Z,99.90
2019-04-07T15:59:00.931Z,99.90
2019-04-07T16:01:28.892Z,99.90
2019-04-07T16:03:59.396Z,99.90
2019-04-07T16:06:28.984Z,99.90
2019-04-07T16:09:00.179Z,99.90
2019-04-07T16:11:29.670Z,99.90
2019-04-07T16:13:58.415Z,99.90
2019-04-07T16:16:29.313Z,99.90
2019-04-07T16:18:57.700Z,99.90
2019-04-07T16:21:28.949Z,99.90
2019-04-07T16:23:57.344Z,99.90
2019-04-07T16:26:30.168Z,99.90
2019-04-07T16:28:57.423Z,99.90
2019-04-07T16:31:27.810Z,99.90
2019-04-07T16:33:57.144Z,99.90
2019-04-07T16:36:26.673Z,99.90
2019-04-07T16:38:56.490Z,99.90
2019-04-07T16:41:26.996Z,99.90
2019-04-07T16:43:55.657Z,99.90
2019-04-07T16:46:25.109Z,99.90
2019-04-07T16:48:55.522Z,99.90
2019-04-07T16:51:27.696Z,99.90
2019-04-07T16:53:54.875Z,99.90
2019-04-07T16:56:24.154Z,99.90
2019-04-07T16:58:53.986Z,99.90
2019-04-07T17:01:24.616Z,99.90
2019-04-07T17:03:54.211Z,99.90
2019-04-07T17:06:23.958Z,99.90
2019-04-07T17:08:53.211Z,99.90
2019-04-07T17:11:22.573Z,99.90
2019-04-07T17:13:51.915Z,99.90
2019-04-07T17:16:22.923Z,99.90
2019-04-07T17:18:51.068Z,99.90
2019-04-07T17:21:20.441Z,99.90
2019-04-07T17:23:53.290Z,99.90
2019-04-07T17:26:21.807Z,99.90
2019-04-07T17:28:49.973Z,99.90
2019-04-07T17:31:20.709Z,99.90
2019-04-07T17:33:49.337Z,99.90
2019-04-07T17:36:21.048Z,99.90
2019-04-07T17:38:49.924Z,99.90
2019-04-07T17:41:20.100Z,98.70
2019-04-07T17:44:02.689Z,95.00
2019-04-07T17:46:36.710Z,95.50
2019-04-07T17:52:09.772Z,64.30
2019-04-07T17:54:42.832Z,55.40
2019-04-07T17:57:12.649Z,40.70
2019-04-07T17:59:46.892Z,45.50
2019-04-07T18:02:16.100Z,39.10
2019-04-07T18:04:50.536Z,42.80
2019-04-07T18:07:25.538Z,44.20
2019-04-07T18:10:11.320Z,39.90
2019-04-07T18:12:45.451Z,39.80
2019-04-07T18:15:15.086Z,43.50
2019-04-07T18:17:48.326Z,49.00
2019-04-07T18:20:31.570Z,55.50
2019-04-07T18:23:07.457Z,59.90
2019-04-07T18:28:46.439Z,88.80
2019-04-07T18:31:31.574Z,93.90
2019-04-07T18:34:03.775Z,96.20
2019-04-07T18:36:37.830Z,98.10
2019-04-07T18:39:28.170Z,99.60
2019-04-07T18:42:06.647Z,99.90
2019-04-07T18:44:38.612Z,99.90
2019-04-07T18:47:16.572Z,99.90
2019-04-07T18:49:51.128Z,99.90
2019-04-07T18:52:26.891Z,99.90
2019-04-07T18:55:13.851Z,99.90
2019-04-07T18:57:46.163Z,99.90
2019-04-07T19:00:21.238Z,99.90
2019-04-07T19:03:11.899Z,99.90
2019-04-07T19:05:58.607Z,99.90
2019-04-07T19:11:14.913Z,99.90
2019-04-07T19:13:42.509Z,99.90
2019-04-07T19:16:19.085Z,99.90
2019-04-07T19:18:45.255Z,99.90
2019-04-07T19:21:16.208Z,99.90
2019-04-07T19:23:49.387Z,99.90
2019-04-07T19:26:25.229Z,99.90
2019-04-07T19:31:55.505Z,99.90
2019-04-07T19:34:29.411Z,99.90
2019-04-07T19:37:01.846Z,99.90
2019-04-07T19:39:53.559Z,99.90
2019-04-07T19:42:22.311Z,99.90
2019-04-07T19:45:09.167Z,99.90
2019-04-07T19:47:54.879Z,99.90
2019-04-07T19:50:30.709Z,99.90
2019-04-07T19:53:10.140Z,99.90
2019-04-07T19:55:48.742Z,99.90
2019-04-07T19:58:18.432Z,99.90
2019-04-07T20:00:55.024Z,99.90
2019-04-07T20:03:24.261Z,98.40
2019-04-07T20:06:09.875Z,99.90
2019-04-07T20:08:45.832Z,99.90
2019-04-07T20:11:16.120Z,99.90
2019-04-07T20:13:47.310Z,99.90
2019-04-07T20:16:19.823Z,96.30
2019-04-07T20:18:54.688Z,96.30
2019-04-07T20:24:29.555Z,94.60
2019-04-07T20:27:15.360Z,94.50
2019-04-07T20:29:47.767Z,94.30
2019-04-07T20:32:18.683Z,92.30
2019-04-07T20:35:05.451Z,87.60
2019-04-07T20:37:38.595Z,85.00
2019-04-07T20:40:27.122Z,83.90
2019-04-07T20:43:00.382Z,85.50
2019-04-07T20:45:35.392Z,90.80
2019-04-07T20:48:08.013Z,87.80
2019-04-07T20:50:46.084Z,88.60
2019-04-07T20:53:23.384Z,88.30
2019-04-07T20:55:53.991Z,84.30
2019-04-07T20:58:46.446Z,84.20
2019-04-07T21:01:27.601Z,84.70
2019-04-07T21:03:58.412Z,83.10
2019-04-07T21:06:47.530Z,86.80
2019-04-07T21:09:22.103Z,82.50
2019-04-07T21:11:56.708Z,84.20
2019-04-07T21:14:26.022Z,86.80
2019-04-07T21:16:59.932Z,86.70
2019-04-07T21:19:36.535Z,86.30
2019-04-07T21:25:02.007Z,84.60
2019-04-07T21:27:37.181Z,84.90
2019-04-07T21:30:08.459Z,88.10
2019-04-07T21:32:38.752Z,85.30
2019-04-07T21:35:19.214Z,86.20
2019-04-07T21:38:05.983Z,82.50
2019-04-07T21:40:42.298Z,83.10
2019-04-07T21:43:11.364Z,83.00
2019-04-07T21:45:53.338Z,82.40
2019-04-07T21:48:32.248Z,85.90
2019-04-07T21:51:22.444Z,85.90
2019-04-07T21:54:01.214Z,81.20
2019-04-07T21:56:43.129Z,80.00
2019-04-07T21:59:11.676Z,82.60
2019-04-07T22:01:47.561Z,82.60
2019-04-07T22:04:19.944Z,83.10
2019-04-07T22:06:48.732Z,79.20
2019-04-07T22:09:19.201Z,76.50
2019-04-07T22:11:48.157Z,75.10
2019-04-07T22:14:18.717Z,79.40
2019-04-07T22:16:47.735Z,76.70
2019-04-07T22:19:17.629Z,74.40
2019-04-07T22:21:47.980Z,72.80
2019-04-07T22:24:17.230Z,76.10
2019-04-07T22:26:49.747Z,73.10
2019-04-07T22:29:16.656Z,72.30
2019-04-07T22:31:47.787Z,73.30
2019-04-07T22:34:17.058Z,76.50
2019-04-07T22:36:47.872Z,73.30
2019-04-07T22:39:16.720Z,76.00
2019-04-07T22:41:46.351Z,77.60
2019-04-07T22:44:19.808Z,76.40
2019-04-07T22:46:48.078Z,77.20
2019-04-07T22:49:15.604Z,77.40
2019-04-07T22:51:47.071Z,78.40
2019-04-07T22:54:14.895Z,77.40
2019-04-07T22:56:44.645Z,77.70
2019-04-07T22:59:14.113Z,80.70
2019-04-07T23:01:43.488Z,79.30
2019-04-07T23:04:13.970Z,77.20
2019-04-07T23:06:43.053Z,78.30
2019-04-07T23:09:13.366Z,80.40
2019-04-07T23:11:42.095Z,79.00
2019-04-07T23:14:11.589Z,78.40
2019-04-07T23:16:42.264Z,76.30
2019-04-07T23:19:11.497Z,76.30
2019-04-07T23:21:41.713Z,75.60
2019-04-07T23:24:10.874Z,77.30
2019-04-07T23:26:40.552Z,77.00
2019-04-07T23:29:10.851Z,78.30
2019-04-07T23:31:40.591Z,78.20
2019-04-07T23:34:10.578Z,78.20
2019-04-07T23:36:40.078Z,81.50
2019-04-07T23:39:09.950Z,81.40
2019-04-07T23:41:39.436Z,82.30
2019-04-07T23:44:09.421Z,84.90
2019-04-07T23:46:39.357Z,84.80
2019-04-07T23:49:09.898Z,84.50
2019-04-07T23:51:39.274Z,81.00
2019-04-07T23:54:10.952Z,77.70
2019-04-07T23:56:41.521Z,79.30
2019-04-07T23:59:11.405Z,79.30
